PWSweather.com
Personal Weather Stations
Station Observations
270882
Flassian, LimouxFR 11300

FlassianLimouxFR 11300

Lat: 43.071798, Lon: 2.217292

Elevation: 165

Station Type: Oregon WMR 200

http://www.meteolimoux.fr

High Low Average
Temperature 58.8°F14.9°C 47.8°F8.8°C 52.6°F11.4°C
Dew Point 42.6°F5.9°C 33.6°F0.9°C 37.7°F3.2°C
Winds 17.4 mph 28.0 kmh Calm Calm 6.0 mph WSW9.7 kmh WSW
Wind Gusts 34.0 mph54.7 kmh -- 13.0 mph20.9 kmh
Humidity 80% 43% 58%
Pressure 30.01 in1016.3 mb 29.48 in998.3 mb -
Precipitation 0.00 in0.0 mm - -
Hour Temp Dew Point Humidity Winds Wind Gusts Pressure Precip Precip Rate Daily Precip Total
12:02 AM 48.7°F9.3°C 41.2°F5.1°C 75% 1.3 mph NE2.1 kmh NE 3.1 mph5.0 kmh 29.51 in999.3 mb - 0.00 in0.0 mm 0.00 in0.0 mm
12:07 AM 48.6°F9.2°C 41.4°F5.2°C 76% 1.8 mph N2.9 kmh N 3.4 mph5.5 kmh 29.51 in999.3 mb - 0.00 in0.0 mm 0.00 in0.0 mm
12:12 AM 48.4°F9.1°C 40.8°F4.9°C 75% 2.0 mph NW3.2 kmh NW 3.6 mph5.8 kmh 29.51 in999.3 mb - 0.00 in0.0 mm 0.00 in0.0 mm
12:17 AM 48.4°F9.1°C 40.8°F4.9°C 75% 0.4 mph WNW0.6 kmh WNW 2.2 mph3.5 kmh 29.51 in999.3 mb - 0.00 in0.0 mm 0.00 in0.0 mm
12:22 AM 48.4°F9.1°C 40.8°F4.9°C 75% 1.6 mph SW2.6 kmh SW 3.1 mph5.0 kmh 29.51 in999.3 mb - 0.00 in0.0 mm 0.00 in0.0 mm
12:27 AM 48.2°F9.0°C 41.7°F5.4°C 78% 1.1 mph SW1.8 kmh SW 1.1 mph1.8 kmh 29.51 in999.3 mb - 0.00 in0.0 mm 0.00 in0.0 mm
12:32 AM 48.2°F9.0°C 41.4°F5.2°C 77% 1.1 mph S1.8 kmh S 2.0 mph3.2 kmh 29.48 in998.3 mb - 0.00 in0.0 mm 0.00 in0.0 mm
12:37 AM 48.0°F8.9°C 41.2°F5.1°C 77% 0.7 mph S1.1 kmh S 2.7 mph4.3 kmh 29.48 in998.3 mb - 0.00 in0.0 mm 0.00 in0.0 mm
12:42 AM 48.0°F8.9°C 41.5°F5.3°C 78% 0.2 mph N0.3 kmh N 1.3 mph2.1 kmh 29.48 in998.3 mb - 0.00 in0.0 mm 0.00 in0.0 mm
12:47 AM 48.0°F8.9°C 41.5°F5.3°C 78% Calm Calm -- 29.51 in999.3 mb - 0.00 in0.0 mm 0.00 in0.0 mm
12:52 AM 48.0°F8.9°C 41.5°F5.3°C 78% 0.7 mph NNE1.1 kmh NNE 3.1 mph5.0 kmh 29.51 in999.3 mb - 0.00 in0.0 mm 0.00 in0.0 mm
12:57 AM 48.0°F8.9°C 41.5°F5.3°C 78% 0.2 mph NW0.3 kmh NW 2.0 mph3.2 kmh 29.51 in999.3 mb - 0.00 in0.0 mm 0.00 in0.0 mm
01:02 AM 48.0°F8.9°C 41.5°F5.3°C 78% 0.4 mph WSW0.6 kmh WSW 1.3 mph2.1 kmh 29.51 in999.3 mb - 0.00 in0.0 mm 0.00 in0.0 mm
01:07 AM 48.0°F8.9°C 41.5°F5.3°C 78% 0.7 mph NNE1.1 kmh NNE 3.4 mph5.5 kmh 29.51 in999.3 mb - 0.00 in0.0 mm 0.00 in0.0 mm
01:12 AM 48.0°F8.9°C 41.5°F5.3°C 78% Calm Calm -- 29.51 in999.3 mb - 0.00 in0.0 mm 0.00 in0.0 mm
01:17 AM 48.0°F8.9°C 41.9°F5.5°C 79% Calm Calm -- 29.54 in1000.3 mb - 0.00 in0.0 mm 0.00 in0.0 mm
01:22 AM 48.0°F8.9°C 41.9°F5.5°C 79% Calm Calm -- 29.54 in1000.3 mb - 0.00 in0.0 mm 0.00 in0.0 mm
01:27 AM 48.0°F8.9°C 41.9°F5.5°C 79% 0.7 mph N1.1 kmh N 2.9 mph4.7 kmh 29.54 in1000.3 mb - 0.00 in0.0 mm 0.00 in0.0 mm
01:32 AM 48.0°F8.9°C 41.9°F5.5°C 79% 0.2 mph WSW0.3 kmh WSW 1.3 mph2.1 kmh 29.57 in1001.4 mb - 0.00 in0.0 mm 0.00 in0.0 mm
01:37 AM 48.0°F8.9°C 42.1°F5.6°C 80% 1.1 mph NW1.8 kmh NW 3.8 mph6.1 kmh 29.57 in1001.4 mb - 0.00 in0.0 mm 0.00 in0.0 mm
01:42 AM 48.2°F9.0°C 42.3°F5.7°C 80% 1.3 mph N2.1 kmh N 4.5 mph7.2 kmh 29.57 in1001.4 mb - 0.00 in0.0 mm 0.00 in0.0 mm
01:47 AM 48.2°F9.0°C 42.3°F5.7°C 80% 1.3 mph N2.1 kmh N 5.6 mph9.0 kmh 29.54 in1000.3 mb - 0.00 in0.0 mm 0.00 in0.0 mm
01:52 AM 48.0°F8.9°C 42.1°F5.6°C 80% 2.0 mph S3.2 kmh S 3.6 mph5.8 kmh 29.54 in1000.3 mb - 0.00 in0.0 mm 0.00 in0.0 mm
01:57 AM 48.0°F8.9°C 41.9°F5.5°C 79% 1.1 mph SE1.8 kmh SE 3.8 mph6.1 kmh 29.54 in1000.3 mb - 0.00 in0.0 mm 0.00 in0.0 mm
02:02 AM 48.0°F8.9°C 41.9°F5.5°C 79% Calm Calm 0.4 mph0.6 kmh 29.57 in1001.4 mb - 0.00 in0.0 mm 0.00 in0.0 mm
02:07 AM 47.8°F8.8°C 41.9°F5.5°C 80% 0.2 mph S0.3 kmh S 1.1 mph1.8 kmh 29.57 in1001.4 mb - 0.00 in0.0 mm 0.00 in0.0 mm
02:12 AM 47.8°F8.8°C 41.9°F5.5°C 80% 0.2 mph SSW0.3 kmh SSW 1.6 mph2.6 kmh 29.57 in1001.4 mb - 0.00 in0.0 mm 0.00 in0.0 mm
02:17 AM 47.8°F8.8°C 41.9°F5.5°C 80% 1.6 mph SSE2.6 kmh SSE 3.4 mph5.5 kmh 29.60 in1002.4 mb - 0.00 in0.0 mm 0.00 in0.0 mm
02:22 AM 48.6°F9.2°C 42.4°F5.8°C 79% 0.9 mph S1.4 kmh S 8.1 mph13.0 kmh 29.60 in1002.4 mb - 0.00 in0.0 mm 0.00 in0.0 mm
02:27 AM 48.7°F9.3°C 42.6°F5.9°C 79% 3.8 mph W6.1 kmh W 8.3 mph13.4 kmh 29.60 in1002.4 mb - 0.00 in0.0 mm 0.00 in0.0 mm
02:32 AM 48.9°F9.4°C 41.7°F5.4°C 76% 2.7 mph WSW4.3 kmh WSW 7.2 mph11.6 kmh 29.60 in1002.4 mb - 0.00 in0.0 mm 0.00 in0.0 mm
02:37 AM 49.3°F9.6°C 41.7°F5.4°C 75% 1.6 mph SW2.6 kmh SW 1.6 mph2.6 kmh 29.60 in1002.4 mb - 0.00 in0.0 mm 0.00 in0.0 mm
02:42 AM 49.5°F9.7°C 41.9°F5.5°C 75% 1.6 mph NNW2.6 kmh NNW 4.9 mph7.9 kmh 29.60 in1002.4 mb - 0.00 in0.0 mm 0.00 in0.0 mm
02:47 AM 49.3°F9.6°C 41.4°F5.2°C 74% 1.3 mph NW2.1 kmh NW 5.1 mph8.2 kmh 29.60 in1002.4 mb - 0.00 in0.0 mm 0.00 in0.0 mm
02:52 AM 50.4°F10.2°C 40.6°F4.8°C 69% Calm Calm -- 29.60 in1002.4 mb - 0.00 in0.0 mm 0.00 in0.0 mm
02:57 AM 50.9°F10.5°C 39.9°F4.4°C 66% 5.1 mph SW8.2 kmh SW 10.3 mph16.6 kmh 29.60 in1002.4 mb - 0.00 in0.0 mm 0.00 in0.0 mm
03:02 AM 51.1°F10.6°C 39.4°F4.1°C 64% 4.9 mph W7.9 kmh W 9.4 mph15.1 kmh 29.60 in1002.4 mb - 0.00 in0.0 mm 0.00 in0.0 mm
03:07 AM 51.4°F10.8°C 39.2°F4.0°C 63% 5.1 mph WSW8.2 kmh WSW 8.7 mph14.0 kmh 29.60 in1002.4 mb - 0.00 in0.0 mm 0.00 in0.0 mm
03:12 AM 51.8°F11.0°C 39.2°F4.0°C 62% 6.3 mph W10.1 kmh W 11.0 mph17.7 kmh 29.60 in1002.4 mb - 0.00 in0.0 mm 0.00 in0.0 mm
03:17 AM 51.6°F10.9°C 39.0°F3.9°C 62% 6.3 mph WSW10.1 kmh WSW 9.6 mph15.4 kmh 29.60 in1002.4 mb - 0.00 in0.0 mm 0.00 in0.0 mm
03:22 AM 51.4°F10.8°C 39.2°F4.0°C 63% 5.6 mph W9.0 kmh W 10.7 mph17.2 kmh 29.60 in1002.4 mb - 0.00 in0.0 mm 0.00 in0.0 mm
03:27 AM 51.4°F10.8°C 39.2°F4.0°C 63% 2.5 mph WNW4.0 kmh WNW 4.5 mph7.2 kmh 29.60 in1002.4 mb - 0.00 in0.0 mm 0.00 in0.0 mm
03:32 AM 51.3°F10.7°C 39.2°F4.0°C 63% 2.7 mph WSW4.3 kmh WSW 5.6 mph9.0 kmh 29.60 in1002.4 mb - 0.00 in0.0 mm 0.00 in0.0 mm
03:37 AM 51.3°F10.7°C 39.6°F4.2°C 64% 1.8 mph SW2.9 kmh SW 4.7 mph7.6 kmh 29.60 in1002.4 mb - 0.00 in0.0 mm 0.00 in0.0 mm
03:42 AM 51.1°F10.6°C 39.4°F4.1°C 64% 2.0 mph WSW3.2 kmh WSW 5.1 mph8.2 kmh 29.60 in1002.4 mb - 0.00 in0.0 mm 0.00 in0.0 mm
03:47 AM 51.1°F10.6°C 39.4°F4.1°C 64% 1.3 mph SW2.1 kmh SW 4.7 mph7.6 kmh 29.60 in1002.4 mb - 0.00 in0.0 mm 0.00 in0.0 mm
03:52 AM 50.7°F10.4°C 39.0°F3.9°C 64% 0.9 mph SW1.4 kmh SW 3.8 mph6.1 kmh 29.60 in1002.4 mb - 0.00 in0.0 mm 0.00 in0.0 mm
03:57 AM 50.5°F10.3°C 38.8°F3.8°C 64% 1.8 mph SW2.9 kmh SW 3.4 mph5.5 kmh 29.60 in1002.4 mb - 0.00 in0.0 mm 0.00 in0.0 mm
04:02 AM 50.4°F10.2°C 38.7°F3.7°C 64% 2.5 mph SW4.0 kmh SW 3.6 mph5.8 kmh 29.63 in1003.4 mb - 0.00 in0.0 mm 0.00 in0.0 mm
04:07 AM 50.4°F10.2°C 39.0°F3.9°C 65% 2.2 mph WSW3.5 kmh WSW 2.9 mph4.7 kmh 29.63 in1003.4 mb - 0.00 in0.0 mm 0.00 in0.0 mm
04:12 AM 50.2°F10.1°C 38.8°F3.8°C 65% 0.9 mph SW1.4 kmh SW 1.6 mph2.6 kmh 29.63 in1003.4 mb - 0.00 in0.0 mm 0.00 in0.0 mm
04:17 AM 50.0°F10.0°C 38.7°F3.7°C 65% 1.6 mph SW2.6 kmh SW 2.7 mph4.3 kmh 29.60 in1002.4 mb - 0.00 in0.0 mm 0.00 in0.0 mm
04:22 AM 49.8°F9.9°C 39.0°F3.9°C 66% 1.8 mph SW2.9 kmh SW 1.8 mph2.9 kmh 29.60 in1002.4 mb - 0.00 in0.0 mm 0.00 in0.0 mm
04:27 AM 49.6°F9.8°C 38.8°F3.8°C 66% 2.2 mph SW3.5 kmh SW 3.1 mph5.0 kmh 29.60 in1002.4 mb - 0.00 in0.0 mm 0.00 in0.0 mm
04:32 AM 49.5°F9.7°C 39.0°F3.9°C 67% 2.0 mph SW3.2 kmh SW 2.7 mph4.3 kmh 29.63 in1003.4 mb - 0.00 in0.0 mm 0.00 in0.0 mm
04:37 AM 49.5°F9.7°C 39.0°F3.9°C 67% 2.0 mph SW3.2 kmh SW 2.9 mph4.7 kmh 29.63 in1003.4 mb - 0.00 in0.0 mm 0.00 in0.0 mm
04:42 AM 49.3°F9.6°C 38.8°F3.8°C 67% 2.9 mph SW4.7 kmh SW 3.4 mph5.5 kmh 29.63 in1003.4 mb - 0.00 in0.0 mm 0.00 in0.0 mm
04:47 AM 49.3°F9.6°C 39.2°F4.0°C 68% 2.9 mph SW4.7 kmh SW 3.6 mph5.8 kmh 29.63 in1003.4 mb - 0.00 in0.0 mm 0.00 in0.0 mm
04:52 AM 49.1°F9.5°C 39.0°F3.9°C 68% 2.7 mph SW4.3 kmh SW 3.4 mph5.5 kmh 29.63 in1003.4 mb - 0.00 in0.0 mm 0.00 in0.0 mm
04:57 AM 48.9°F9.4°C 39.2°F4.0°C 69% 1.8 mph SW2.9 kmh SW 2.7 mph4.3 kmh 29.63 in1003.4 mb - 0.00 in0.0 mm 0.00 in0.0 mm
05:02 AM 48.9°F9.4°C 39.2°F4.0°C 69% 0.4 mph SSW0.6 kmh SSW 2.2 mph3.5 kmh 29.66 in1004.4 mb - 0.00 in0.0 mm 0.00 in0.0 mm
05:07 AM 48.7°F9.3°C 39.0°F3.9°C 69% Calm Calm -- 29.66 in1004.4 mb - 0.00 in0.0 mm 0.00 in0.0 mm
05:12 AM 48.6°F9.2°C 39.2°F4.0°C 70% 0.7 mph N1.1 kmh N 5.1 mph8.2 kmh 29.66 in1004.4 mb - 0.00 in0.0 mm 0.00 in0.0 mm
05:17 AM 48.6°F9.2°C 39.2°F4.0°C 70% 1.3 mph SW2.1 kmh SW 2.7 mph4.3 kmh 29.60 in1002.4 mb - 0.00 in0.0 mm 0.00 in0.0 mm
05:22 AM 48.6°F9.2°C 39.2°F4.0°C 70% 1.1 mph SW1.8 kmh SW 2.2 mph3.5 kmh 29.60 in1002.4 mb - 0.00 in0.0 mm 0.00 in0.0 mm
05:27 AM 48.6°F9.2°C 39.6°F4.2°C 71% 1.8 mph SW2.9 kmh SW 2.9 mph4.7 kmh 29.60 in1002.4 mb - 0.00 in0.0 mm 0.00 in0.0 mm
05:32 AM 48.6°F9.2°C 39.6°F4.2°C 71% 0.7 mph S1.1 kmh S 2.2 mph3.5 kmh 29.63 in1003.4 mb - 0.00 in0.0 mm 0.00 in0.0 mm
05:37 AM 48.4°F9.1°C 39.4°F4.1°C 71% 1.3 mph S2.1 kmh S 2.9 mph4.7 kmh 29.63 in1003.4 mb - 0.00 in0.0 mm 0.00 in0.0 mm
05:42 AM 48.4°F9.1°C 39.7°F4.3°C 72% 1.8 mph SSW2.9 kmh SSW 2.5 mph4.0 kmh 29.63 in1003.4 mb - 0.00 in0.0 mm 0.00 in0.0 mm
05:47 AM 48.6°F9.2°C 39.9°F4.4°C 72% 1.3 mph SSW2.1 kmh SSW 2.7 mph4.3 kmh 29.63 in1003.4 mb - 0.00 in0.0 mm 0.00 in0.0 mm
05:52 AM 48.9°F9.4°C 40.3°F4.6°C 72% 0.9 mph S1.4 kmh S 0.9 mph1.4 kmh 29.63 in1003.4 mb - 0.00 in0.0 mm 0.00 in0.0 mm
05:57 AM 49.1°F9.5°C 40.5°F4.7°C 72% 1.8 mph SW2.9 kmh SW 3.4 mph5.5 kmh 29.63 in1003.4 mb - 0.00 in0.0 mm 0.00 in0.0 mm
06:02 AM 49.3°F9.6°C 40.3°F4.6°C 71% 1.3 mph SW2.1 kmh SW 2.9 mph4.7 kmh 29.66 in1004.4 mb - 0.00 in0.0 mm 0.00 in0.0 mm
06:07 AM 49.6°F9.8°C 40.3°F4.6°C 70% 1.6 mph SW2.6 kmh SW 4.5 mph7.2 kmh 29.66 in1004.4 mb - 0.00 in0.0 mm 0.00 in0.0 mm
06:12 AM 49.8°F9.9°C 40.1°F4.5°C 69% 2.0 mph WSW3.2 kmh WSW 5.4 mph8.7 kmh 29.66 in1004.4 mb - 0.00 in0.0 mm 0.00 in0.0 mm
06:17 AM 50.0°F10.0°C 39.9°F4.4°C 68% 1.8 mph WNW2.9 kmh WNW 3.8 mph6.1 kmh 29.69 in1005.4 mb - 0.00 in0.0 mm 0.00 in0.0 mm
06:22 AM 50.2°F10.1°C 40.1°F4.5°C 68% 2.9 mph WSW4.7 kmh WSW 5.8 mph9.3 kmh 29.69 in1005.4 mb - 0.00 in0.0 mm 0.00 in0.0 mm
06:27 AM 50.2°F10.1°C 39.7°F4.3°C 67% 3.1 mph WSW5.0 kmh WSW 6.5 mph10.5 kmh 29.69 in1005.4 mb - 0.00 in0.0 mm 0.00 in0.0 mm
06:32 AM 50.4°F10.2°C 39.4°F4.1°C 66% 3.6 mph W5.8 kmh W 6.7 mph10.8 kmh 29.69 in1005.4 mb - 0.00 in0.0 mm 0.00 in0.0 mm
06:37 AM 50.5°F10.3°C 39.6°F4.2°C 66% 3.8 mph WNW6.1 kmh WNW 8.5 mph13.7 kmh 29.69 in1005.4 mb - 0.00 in0.0 mm 0.00 in0.0 mm
06:42 AM 50.5°F10.3°C 39.6°F4.2°C 66% 4.0 mph SW6.4 kmh SW 7.6 mph12.2 kmh 29.69 in1005.4 mb - 0.00 in0.0 mm 0.00 in0.0 mm
06:47 AM 50.7°F10.4°C 39.4°F4.1°C 65% 3.6 mph WSW5.8 kmh WSW 7.2 mph11.6 kmh 29.69 in1005.4 mb - 0.00 in0.0 mm 0.00 in0.0 mm
06:52 AM 50.7°F10.4°C 39.4°F4.1°C 65% 3.1 mph WSW5.0 kmh WSW 6.9 mph11.1 kmh 29.69 in1005.4 mb - 0.00 in0.0 mm 0.00 in0.0 mm
06:57 AM 50.7°F10.4°C 39.4°F4.1°C 65% 3.6 mph W5.8 kmh W 9.4 mph15.1 kmh 29.69 in1005.4 mb - 0.00 in0.0 mm 0.00 in0.0 mm
07:02 AM 50.5°F10.3°C 39.2°F4.0°C 65% 3.8 mph W6.1 kmh W 6.7 mph10.8 kmh 29.69 in1005.4 mb - 0.00 in0.0 mm 0.00 in0.0 mm
07:07 AM 50.5°F10.3°C 39.2°F4.0°C 65% 3.4 mph SW5.5 kmh SW 5.6 mph9.0 kmh 29.69 in1005.4 mb - 0.00 in0.0 mm 0.00 in0.0 mm
07:12 AM 50.5°F10.3°C 39.2°F4.0°C 65% 2.7 mph SW4.3 kmh SW 5.8 mph9.3 kmh 29.69 in1005.4 mb - 0.00 in0.0 mm 0.00 in0.0 mm
07:17 AM 51.1°F10.6°C 39.0°F3.9°C 63% 4.0 mph WSW6.4 kmh WSW 11.4 mph18.3 kmh 29.66 in1004.4 mb - 0.00 in0.0 mm 0.00 in0.0 mm
07:22 AM 51.1°F10.6°C 39.0°F3.9°C 63% 4.7 mph SW7.6 kmh SW 10.3 mph16.6 kmh 29.66 in1004.4 mb - 0.00 in0.0 mm 0.00 in0.0 mm
07:27 AM 51.3°F10.7°C 39.2°F4.0°C 63% 5.4 mph SW8.7 kmh SW 11.2 mph18.0 kmh 29.66 in1004.4 mb - 0.00 in0.0 mm 0.00 in0.0 mm
07:32 AM 51.4°F10.8°C 38.8°F3.8°C 62% 4.9 mph W7.9 kmh W 9.6 mph15.4 kmh 29.66 in1004.4 mb - 0.00 in0.0 mm 0.00 in0.0 mm
07:37 AM 51.6°F10.9°C 39.0°F3.9°C 62% 5.8 mph WSW9.3 kmh WSW 9.2 mph14.8 kmh 29.66 in1004.4 mb - 0.00 in0.0 mm 0.00 in0.0 mm
07:42 AM 51.6°F10.9°C 39.0°F3.9°C 62% 4.5 mph W7.2 kmh W 8.3 mph13.4 kmh 29.66 in1004.4 mb - 0.00 in0.0 mm 0.00 in0.0 mm
07:47 AM 51.8°F11.0°C 38.8°F3.8°C 61% 3.4 mph WNW5.5 kmh WNW 6.9 mph11.1 kmh 29.69 in1005.4 mb - 0.00 in0.0 mm 0.00 in0.0 mm
07:52 AM 51.8°F11.0°C 39.2°F4.0°C 62% 5.8 mph W9.3 kmh W 9.2 mph14.8 kmh 29.69 in1005.4 mb - 0.00 in0.0 mm 0.00 in0.0 mm
07:57 AM 51.8°F11.0°C 39.2°F4.0°C 62% 4.9 mph WSW7.9 kmh WSW 10.3 mph16.6 kmh 29.69 in1005.4 mb - 0.00 in0.0 mm 0.00 in0.0 mm
08:02 AM 51.8°F11.0°C 39.2°F4.0°C 62% 4.5 mph W7.2 kmh W 6.7 mph10.8 kmh 29.69 in1005.4 mb - 0.00 in0.0 mm 0.00 in0.0 mm
08:07 AM 51.8°F11.0°C 39.2°F4.0°C 62% 2.7 mph WNW4.3 kmh WNW 6.5 mph10.5 kmh 29.69 in1005.4 mb - 0.00 in0.0 mm 0.00 in0.0 mm
08:12 AM 51.8°F11.0°C 39.2°F4.0°C 62% 0.2 mph W0.3 kmh W 4.7 mph7.6 kmh 29.69 in1005.4 mb - 0.00 in0.0 mm 0.00 in0.0 mm
08:17 AM 52.3°F11.3°C 39.7°F4.3°C 62% 2.5 mph SW4.0 kmh SW 6.3 mph10.1 kmh 29.69 in1005.4 mb - 0.00 in0.0 mm 0.00 in0.0 mm
08:22 AM 52.7°F11.5°C 39.7°F4.3°C 61% 2.7 mph SW4.3 kmh SW 7.8 mph12.6 kmh 29.69 in1005.4 mb - 0.00 in0.0 mm 0.00 in0.0 mm
08:27 AM 52.7°F11.5°C 39.7°F4.3°C 61% 3.4 mph NW5.5 kmh NW 6.9 mph11.1 kmh 29.69 in1005.4 mb - 0.00 in0.0 mm 0.00 in0.0 mm
08:32 AM 53.1°F11.7°C 39.2°F4.0°C 59% 3.1 mph SW5.0 kmh SW 6.3 mph10.1 kmh 29.72 in1006.4 mb - 0.00 in0.0 mm 0.00 in0.0 mm
08:37 AM 53.4°F11.9°C 39.9°F4.4°C 60% 4.9 mph W7.9 kmh W 11.4 mph18.3 kmh 29.72 in1006.4 mb - 0.00 in0.0 mm 0.00 in0.0 mm
08:42 AM 54.0°F12.2°C 39.9°F4.4°C 59% 4.0 mph W6.4 kmh W 7.4 mph11.9 kmh 29.72 in1006.4 mb - 0.00 in0.0 mm 0.00 in0.0 mm
08:47 AM 54.3°F12.4°C 39.9°F4.4°C 58% 3.1 mph WSW5.0 kmh WSW 8.1 mph13.0 kmh 29.72 in1006.4 mb - 0.00 in0.0 mm 0.00 in0.0 mm
08:52 AM 54.3°F12.4°C 39.4°F4.1°C 57% 4.0 mph W6.4 kmh W 8.7 mph14.0 kmh 29.72 in1006.4 mb - 0.00 in0.0 mm 0.00 in0.0 mm
08:57 AM 54.0°F12.2°C 38.1°F3.4°C 55% 4.5 mph WNW7.2 kmh WNW 9.4 mph15.1 kmh 29.72 in1006.4 mb - 0.00 in0.0 mm 0.00 in0.0 mm
09:02 AM 54.1°F12.3°C 38.8°F3.8°C 56% 7.6 mph WNW12.2 kmh WNW 12.1 mph19.5 kmh 29.75 in1007.5 mb - 0.00 in0.0 mm 0.00 in0.0 mm
09:07 AM 53.8°F12.1°C 37.9°F3.3°C 55% 7.4 mph WSW11.9 kmh WSW 16.6 mph26.7 kmh 29.75 in1007.5 mb - 0.00 in0.0 mm 0.00 in0.0 mm
09:12 AM 53.8°F12.1°C 38.5°F3.6°C 56% 6.5 mph W10.5 kmh W 14.1 mph22.7 kmh 29.75 in1007.5 mb - 0.00 in0.0 mm 0.00 in0.0 mm
09:17 AM 53.8°F12.1°C 38.5°F3.6°C 56% 5.4 mph WSW8.7 kmh WSW 10.3 mph16.6 kmh 29.75 in1007.5 mb - 0.00 in0.0 mm 0.00 in0.0 mm
09:22 AM 53.8°F12.1°C 39.0°F3.9°C 57% 4.5 mph WNW7.2 kmh WNW 10.5 mph16.9 kmh 29.75 in1007.5 mb - 0.00 in0.0 mm 0.00 in0.0 mm
09:27 AM 53.8°F12.1°C 38.5°F3.6°C 56% 4.0 mph NW6.4 kmh NW 13.2 mph21.2 kmh 29.75 in1007.5 mb - 0.00 in0.0 mm 0.00 in0.0 mm
09:32 AM 53.8°F12.1°C 38.5°F3.6°C 56% 4.0 mph WSW6.4 kmh WSW 11.4 mph18.3 kmh 29.78 in1008.5 mb - 0.00 in0.0 mm 0.00 in0.0 mm
09:37 AM 54.0°F12.2°C 38.7°F3.7°C 56% 6.0 mph WNW9.7 kmh WNW 9.8 mph15.8 kmh 29.78 in1008.5 mb - 0.00 in0.0 mm 0.00 in0.0 mm
09:42 AM 54.3°F12.4°C 39.0°F3.9°C 56% 6.3 mph WNW10.1 kmh WNW 13.9 mph22.4 kmh 29.78 in1008.5 mb - 0.00 in0.0 mm 0.00 in0.0 mm
09:47 AM 54.5°F12.5°C 38.7°F3.7°C 55% 4.0 mph W6.4 kmh W 11.0 mph17.7 kmh 29.72 in1006.4 mb - 0.00 in0.0 mm 0.00 in0.0 mm
09:52 AM 54.7°F12.6°C 38.8°F3.8°C 55% 4.3 mph WSW6.9 kmh WSW 9.2 mph14.8 kmh 29.72 in1006.4 mb - 0.00 in0.0 mm 0.00 in0.0 mm
09:57 AM 54.9°F12.7°C 39.0°F3.9°C 55% 6.5 mph W10.5 kmh W 13.4 mph21.6 kmh 29.72 in1006.4 mb - 0.00 in0.0 mm 0.00 in0.0 mm
10:02 AM 54.7°F12.6°C 38.3°F3.5°C 54% 5.4 mph NW8.7 kmh NW 10.3 mph16.6 kmh 29.75 in1007.5 mb - 0.00 in0.0 mm 0.00 in0.0 mm
10:07 AM 54.9°F12.7°C 38.5°F3.6°C 54% 6.3 mph W10.1 kmh W 12.1 mph19.5 kmh 29.75 in1007.5 mb - 0.00 in0.0 mm 0.00 in0.0 mm
10:12 AM 54.9°F12.7°C 38.5°F3.6°C 54% 6.7 mph WSW10.8 kmh WSW 14.1 mph22.7 kmh 29.75 in1007.5 mb - 0.00 in0.0 mm 0.00 in0.0 mm
10:17 AM 55.2°F12.9°C 38.8°F3.8°C 54% 7.4 mph W11.9 kmh W 15.4 mph24.8 kmh 29.75 in1007.5 mb - 0.00 in0.0 mm 0.00 in0.0 mm
10:22 AM 55.6°F13.1°C 39.2°F4.0°C 54% 8.5 mph WNW13.7 kmh WNW 17.4 mph28.0 kmh 29.75 in1007.5 mb - 0.00 in0.0 mm 0.00 in0.0 mm
10:27 AM 55.8°F13.2°C 38.8°F3.8°C 53% 6.5 mph WNW10.5 kmh WNW 10.5 mph16.9 kmh 29.75 in1007.5 mb - 0.00 in0.0 mm 0.00 in0.0 mm
10:32 AM 55.8°F13.2°C 38.8°F3.8°C 53% 7.6 mph WNW12.2 kmh WNW 13.0 mph20.9 kmh 29.75 in1007.5 mb - 0.00 in0.0 mm 0.00 in0.0 mm
10:37 AM 55.9°F13.3°C 39.0°F3.9°C 53% 3.4 mph NW5.5 kmh NW 9.4 mph15.1 kmh 29.75 in1007.5 mb - 0.00 in0.0 mm 0.00 in0.0 mm
10:42 AM 56.3°F13.5°C 39.4°F4.1°C 53% 4.5 mph W7.2 kmh W 12.5 mph20.1 kmh 29.75 in1007.5 mb - 0.00 in0.0 mm 0.00 in0.0 mm
10:47 AM 56.3°F13.5°C 38.8°F3.8°C 52% 5.4 mph NW8.7 kmh NW 5.4 mph8.7 kmh 29.75 in1007.5 mb - 0.00 in0.0 mm 0.00 in0.0 mm
10:52 AM 56.7°F13.7°C 39.7°F4.3°C 53% 5.1 mph WNW8.2 kmh WNW 10.3 mph16.6 kmh 29.75 in1007.5 mb - 0.00 in0.0 mm 0.00 in0.0 mm
10:57 AM 57.0°F13.9°C 39.6°F4.2°C 52% 6.9 mph W11.1 kmh W 15.2 mph24.5 kmh 29.75 in1007.5 mb - 0.00 in0.0 mm 0.00 in0.0 mm
11:02 AM 57.0°F13.9°C 39.0°F3.9°C 51% 2.5 mph NNW4.0 kmh NNW 9.4 mph15.1 kmh 29.78 in1008.5 mb - 0.00 in0.0 mm 0.00 in0.0 mm
11:07 AM 57.4°F14.1°C 39.4°F4.1°C 51% 5.4 mph W8.7 kmh W 13.2 mph21.2 kmh 29.78 in1008.5 mb - 0.00 in0.0 mm 0.00 in0.0 mm
11:12 AM 57.7°F14.3°C 39.7°F4.3°C 51% 7.8 mph WSW12.6 kmh WSW 14.8 mph23.8 kmh 29.78 in1008.5 mb - 0.00 in0.0 mm 0.00 in0.0 mm
11:17 AM 57.7°F14.3°C 39.2°F4.0°C 50% 5.8 mph NW9.3 kmh NW 12.8 mph20.6 kmh 29.78 in1008.5 mb - 0.00 in0.0 mm 0.00 in0.0 mm
11:22 AM 57.7°F14.3°C 39.2°F4.0°C 50% 9.2 mph NW14.8 kmh NW 15.9 mph25.6 kmh 29.78 in1008.5 mb - 0.00 in0.0 mm 0.00 in0.0 mm
11:27 AM 57.7°F14.3°C 38.3°F3.5°C 48% 7.6 mph WSW12.2 kmh WSW 17.0 mph27.4 kmh 29.78 in1008.5 mb - 0.00 in0.0 mm 0.00 in0.0 mm
11:32 AM 57.9°F14.4°C 38.8°F3.8°C 49% 6.7 mph NW10.8 kmh NW 21.0 mph33.8 kmh 29.78 in1008.5 mb - 0.00 in0.0 mm 0.00 in0.0 mm
11:37 AM 57.9°F14.4°C 37.2°F2.9°C 46% 9.6 mph WNW15.4 kmh WNW 19.5 mph31.4 kmh 29.78 in1008.5 mb - 0.00 in0.0 mm 0.00 in0.0 mm
11:42 AM 58.1°F14.5°C 37.9°F3.3°C 47% 6.7 mph NW10.8 kmh NW 15.2 mph24.5 kmh 29.78 in1008.5 mb - 0.00 in0.0 mm 0.00 in0.0 mm
11:47 AM 57.9°F14.4°C 37.8°F3.2°C 47% 7.8 mph NW12.6 kmh NW 16.8 mph27.0 kmh 29.78 in1008.5 mb - 0.00 in0.0 mm 0.00 in0.0 mm
11:52 AM 57.9°F14.4°C 37.2°F2.9°C 46% 7.4 mph NW11.9 kmh NW 17.4 mph28.0 kmh 29.78 in1008.5 mb - 0.00 in0.0 mm 0.00 in0.0 mm
11:57 AM 57.7°F14.3°C 37.8°F3.2°C 47% 5.8 mph NW9.3 kmh NW 15.4 mph24.8 kmh 29.78 in1008.5 mb - 0.00 in0.0 mm 0.00 in0.0 mm
12:02 PM 57.7°F14.3°C 37.8°F3.2°C 47% 6.5 mph WNW10.5 kmh WNW 14.8 mph23.8 kmh 29.78 in1008.5 mb - 0.00 in0.0 mm 0.00 in0.0 mm
12:07 PM 57.7°F14.3°C 37.2°F2.9°C 46% 6.3 mph NW10.1 kmh NW 13.0 mph20.9 kmh 29.78 in1008.5 mb - 0.00 in0.0 mm 0.00 in0.0 mm
12:12 PM 57.7°F14.3°C 37.2°F2.9°C 46% 8.7 mph W14.0 kmh W 18.1 mph29.1 kmh 29.78 in1008.5 mb - 0.00 in0.0 mm 0.00 in0.0 mm
12:17 PM 57.9°F14.4°C 37.2°F2.9°C 46% 8.7 mph NW14.0 kmh NW 16.1 mph25.9 kmh 29.81 in1009.5 mb - 0.00 in0.0 mm 0.00 in0.0 mm
12:22 PM 58.1°F14.5°C 37.4°F3.0°C 46% 7.8 mph NW12.6 kmh NW 16.6 mph26.7 kmh 29.81 in1009.5 mb - 0.00 in0.0 mm 0.00 in0.0 mm
12:27 PM 57.4°F14.1°C 36.9°F2.7°C 46% 8.5 mph WSW13.7 kmh WSW 15.9 mph25.6 kmh 29.81 in1009.5 mb - 0.00 in0.0 mm 0.00 in0.0 mm
12:32 PM 56.8°F13.8°C 36.3°F2.4°C 46% 10.5 mph NW16.9 kmh NW 21.3 mph34.3 kmh 29.81 in1009.5 mb - 0.00 in0.0 mm 0.00 in0.0 mm
12:37 PM 55.6°F13.1°C 37.2°F2.9°C 50% 9.8 mph NW15.8 kmh NW 24.4 mph39.3 kmh 29.81 in1009.5 mb - 0.00 in0.0 mm 0.00 in0.0 mm
12:42 PM 55.4°F13.0°C 37.6°F3.1°C 51% 11.0 mph WNW17.7 kmh WNW 25.1 mph40.4 kmh 29.81 in1009.5 mb - 0.00 in0.0 mm 0.00 in0.0 mm
12:47 PM 55.8°F13.2°C 37.9°F3.3°C 51% 7.6 mph W12.2 kmh W 18.1 mph29.1 kmh 29.84 in1010.5 mb - 0.00 in0.0 mm 0.00 in0.0 mm
12:52 PM 56.5°F13.6°C 38.1°F3.4°C 50% 6.5 mph NW10.5 kmh NW 13.0 mph20.9 kmh 29.84 in1010.5 mb - 0.00 in0.0 mm 0.00 in0.0 mm
12:57 PM 57.0°F13.9°C 38.7°F3.7°C 50% 8.3 mph NW13.4 kmh NW 18.3 mph29.5 kmh 29.84 in1010.5 mb - 0.00 in0.0 mm 0.00 in0.0 mm
01:02 PM 57.2°F14.0°C 38.3°F3.5°C 49% 7.2 mph NW11.6 kmh NW 15.4 mph24.8 kmh 29.81 in1009.5 mb - 0.00 in0.0 mm 0.00 in0.0 mm
01:07 PM 57.2°F14.0°C 36.7°F2.6°C 46% 7.8 mph NW12.6 kmh NW 15.2 mph24.5 kmh 29.81 in1009.5 mb - 0.00 in0.0 mm 0.00 in0.0 mm
01:12 PM 57.6°F14.2°C 37.6°F3.1°C 47% 7.2 mph WNW11.6 kmh WNW 19.2 mph30.9 kmh 29.81 in1009.5 mb - 0.00 in0.0 mm 0.00 in0.0 mm
01:17 PM 57.6°F14.2°C 37.0°F2.8°C 46% 9.8 mph W15.8 kmh W 23.5 mph37.8 kmh 29.81 in1009.5 mb - 0.00 in0.0 mm 0.00 in0.0 mm
01:22 PM 57.4°F14.1°C 37.4°F3.0°C 47% 8.7 mph NW14.0 kmh NW 25.7 mph41.4 kmh 29.81 in1009.5 mb - 0.00 in0.0 mm 0.00 in0.0 mm
01:27 PM 57.7°F14.3°C 37.8°F3.2°C 47% 10.3 mph NW16.6 kmh NW 24.2 mph38.9 kmh 29.81 in1009.5 mb - 0.00 in0.0 mm 0.00 in0.0 mm
01:32 PM 57.7°F14.3°C 37.8°F3.2°C 47% 7.6 mph WSW12.2 kmh WSW 20.8 mph33.5 kmh 29.84 in1010.5 mb - 0.00 in0.0 mm 0.00 in0.0 mm
01:37 PM 57.9°F14.4°C 37.8°F3.2°C 47% 6.0 mph NW9.7 kmh NW 15.2 mph24.5 kmh 29.84 in1010.5 mb - 0.00 in0.0 mm 0.00 in0.0 mm
01:42 PM 58.6°F14.8°C 38.5°F3.6°C 47% 9.2 mph W14.8 kmh W 20.8 mph33.5 kmh 29.84 in1010.5 mb - 0.00 in0.0 mm 0.00 in0.0 mm
01:47 PM 58.6°F14.8°C 38.5°F3.6°C 47% 7.8 mph WSW12.6 kmh WSW 18.1 mph29.1 kmh 29.81 in1009.5 mb - 0.00 in0.0 mm 0.00 in0.0 mm
01:52 PM 58.3°F14.6°C 38.1°F3.4°C 47% 9.4 mph WNW15.1 kmh WNW 24.2 mph38.9 kmh 29.81 in1009.5 mb - 0.00 in0.0 mm 0.00 in0.0 mm
01:57 PM 57.9°F14.4°C 37.8°F3.2°C 47% 11.4 mph WNW18.3 kmh WNW 25.9 mph41.7 kmh 29.81 in1009.5 mb - 0.00 in0.0 mm 0.00 in0.0 mm
02:02 PM 58.3°F14.6°C 38.1°F3.4°C 47% 12.3 mph NE19.8 kmh NE 12.3 mph19.8 kmh 29.81 in1009.5 mb - 0.00 in0.0 mm 0.00 in0.0 mm
02:07 PM 58.3°F14.6°C 38.1°F3.4°C 47% 11.9 mph WSW19.2 kmh WSW 25.3 mph40.7 kmh 29.81 in1009.5 mb - 0.00 in0.0 mm 0.00 in0.0 mm
02:12 PM 58.8°F14.9°C 38.1°F3.4°C 46% 13.6 mph NW21.9 kmh NW 23.9 mph38.5 kmh 29.81 in1009.5 mb - 0.00 in0.0 mm 0.00 in0.0 mm
02:17 PM 58.6°F14.8°C 37.9°F3.3°C 46% 12.3 mph NW19.8 kmh NW 27.3 mph43.9 kmh 29.81 in1009.5 mb - 0.00 in0.0 mm 0.00 in0.0 mm
02:22 PM 58.1°F14.5°C 37.4°F3.0°C 46% 9.8 mph NW15.8 kmh NW 20.6 mph33.2 kmh 29.81 in1009.5 mb - 0.00 in0.0 mm 0.00 in0.0 mm
02:27 PM 57.9°F14.4°C 36.7°F2.6°C 45% 13.0 mph WNW20.9 kmh WNW 23.7 mph38.1 kmh 29.81 in1009.5 mb - 0.00 in0.0 mm 0.00 in0.0 mm
02:32 PM 58.1°F14.5°C 37.4°F3.0°C 46% 10.5 mph WSW16.9 kmh WSW 28.4 mph45.7 kmh 29.81 in1009.5 mb - 0.00 in0.0 mm 0.00 in0.0 mm
02:37 PM 57.6°F14.2°C 37.0°F2.8°C 46% 11.2 mph WSW18.0 kmh WSW 23.0 mph37.0 kmh 29.81 in1009.5 mb - 0.00 in0.0 mm 0.00 in0.0 mm
02:42 PM 57.6°F14.2°C 37.0°F2.8°C 46% 13.9 mph NW22.4 kmh NW 30.6 mph49.2 kmh 29.81 in1009.5 mb - 0.00 in0.0 mm 0.00 in0.0 mm
02:47 PM 57.7°F14.3°C 37.2°F2.9°C 46% 17.0 mph WNW27.4 kmh WNW 34.0 mph54.7 kmh 29.81 in1009.5 mb - 0.00 in0.0 mm 0.00 in0.0 mm
02:52 PM 58.1°F14.5°C 36.9°F2.7°C 45% 15.9 mph WSW25.6 kmh WSW 31.1 mph50.1 kmh 29.81 in1009.5 mb - 0.00 in0.0 mm 0.00 in0.0 mm
02:57 PM 58.5°F14.7°C 36.7°F2.6°C 44% 13.9 mph NW22.4 kmh NW 26.8 mph43.1 kmh 29.81 in1009.5 mb - 0.00 in0.0 mm 0.00 in0.0 mm
03:02 PM 58.6°F14.8°C 36.3°F2.4°C 43% 12.1 mph WNW19.5 kmh WNW 27.3 mph43.9 kmh 29.81 in1009.5 mb - 0.00 in0.0 mm 0.00 in0.0 mm
03:07 PM 58.5°F14.7°C 36.1°F2.3°C 43% 13.0 mph N20.9 kmh N 33.1 mph53.3 kmh 29.81 in1009.5 mb - 0.00 in0.0 mm 0.00 in0.0 mm
03:12 PM 57.6°F14.2°C 36.5°F2.5°C 45% 13.0 mph W20.9 kmh W 32.2 mph51.8 kmh 29.81 in1009.5 mb - 0.00 in0.0 mm 0.00 in0.0 mm
03:17 PM 57.0°F13.9°C 36.0°F2.2°C 45% 15.0 mph WNW24.1 kmh WNW 31.8 mph51.2 kmh 29.84 in1010.5 mb - 0.00 in0.0 mm 0.00 in0.0 mm
03:22 PM 56.8°F13.8°C 35.8°F2.1°C 45% 14.8 mph NW23.8 kmh NW 26.6 mph42.8 kmh 29.84 in1010.5 mb - 0.00 in0.0 mm 0.00 in0.0 mm
03:27 PM 56.8°F13.8°C 35.8°F2.1°C 45% 15.9 mph NW25.6 kmh NW 29.1 mph46.8 kmh 29.84 in1010.5 mb - 0.00 in0.0 mm 0.00 in0.0 mm
03:32 PM 56.8°F13.8°C 35.8°F2.1°C 45% 11.6 mph WNW18.7 kmh WNW 23.3 mph37.5 kmh 29.84 in1010.5 mb - 0.00 in0.0 mm 0.00 in0.0 mm
03:37 PM 56.8°F13.8°C 36.3°F2.4°C 46% 13.2 mph WNW21.2 kmh WNW 26.4 mph42.5 kmh 29.84 in1010.5 mb - 0.00 in0.0 mm 0.00 in0.0 mm
03:42 PM 56.3°F13.5°C 36.3°F2.4°C 47% 15.7 mph NW25.3 kmh NW 30.9 mph49.7 kmh 29.84 in1010.5 mb - 0.00 in0.0 mm 0.00 in0.0 mm
03:47 PM 54.7°F12.6°C 35.4°F1.9°C 48% 12.5 mph NW20.1 kmh NW 24.8 mph39.9 kmh 29.87 in1011.5 mb - 0.00 in0.0 mm 0.00 in0.0 mm
03:52 PM 54.7°F12.6°C 35.4°F1.9°C 48% 17.4 mph WSW28.0 kmh WSW 30.4 mph48.9 kmh 29.87 in1011.5 mb - 0.00 in0.0 mm 0.00 in0.0 mm
03:57 PM 54.9°F12.7°C 35.1°F1.7°C 47% 16.3 mph NW26.2 kmh NW 32.7 mph52.6 kmh 29.87 in1011.5 mb - 0.00 in0.0 mm 0.00 in0.0 mm
04:02 PM 55.2°F12.9°C 35.4°F1.9°C 47% 11.9 mph WNW19.2 kmh WNW 27.3 mph43.9 kmh 29.87 in1011.5 mb - 0.00 in0.0 mm 0.00 in0.0 mm
04:07 PM 55.6°F13.1°C 35.2°F1.8°C 46% 12.3 mph NW19.8 kmh NW 24.8 mph39.9 kmh 29.87 in1011.5 mb - 0.00 in0.0 mm 0.00 in0.0 mm
04:12 PM 56.1°F13.4°C 35.6°F2.0°C 46% 8.5 mph NW13.7 kmh NW 17.9 mph28.8 kmh 29.87 in1011.5 mb - 0.00 in0.0 mm 0.00 in0.0 mm
04:17 PM 56.3°F13.5°C 35.8°F2.1°C 46% 10.3 mph NW16.6 kmh NW 19.9 mph32.0 kmh 29.84 in1010.5 mb - 0.00 in0.0 mm 0.00 in0.0 mm
04:22 PM 56.5°F13.6°C 36.0°F2.2°C 46% 11.2 mph WNW18.0 kmh WNW 25.7 mph41.4 kmh 29.84 in1010.5 mb - 0.00 in0.0 mm 0.00 in0.0 mm
04:27 PM 56.8°F13.8°C 36.3°F2.4°C 46% 12.3 mph WNW19.8 kmh WNW 22.4 mph36.0 kmh 29.84 in1010.5 mb - 0.00 in0.0 mm 0.00 in0.0 mm
04:32 PM 57.0°F13.9°C 36.5°F2.5°C 46% 8.1 mph WSW13.0 kmh WSW 21.3 mph34.3 kmh 29.84 in1010.5 mb - 0.00 in0.0 mm 0.00 in0.0 mm
04:37 PM 57.0°F13.9°C 36.0°F2.2°C 45% 8.9 mph W14.3 kmh W 22.4 mph36.0 kmh 29.84 in1010.5 mb - 0.00 in0.0 mm 0.00 in0.0 mm
04:42 PM 56.8°F13.8°C 34.7°F1.5°C 43% 8.9 mph WSW14.3 kmh WSW 19.7 mph31.7 kmh 29.84 in1010.5 mb - 0.00 in0.0 mm 0.00 in0.0 mm
04:47 PM 56.8°F13.8°C 34.7°F1.5°C 43% 8.7 mph WSW14.0 kmh WSW 17.7 mph28.5 kmh 29.87 in1011.5 mb - 0.00 in0.0 mm 0.00 in0.0 mm
04:52 PM 55.8°F13.2°C 35.2°F1.8°C 46% 14.1 mph NW22.7 kmh NW 27.7 mph44.6 kmh 29.87 in1011.5 mb - 0.00 in0.0 mm 0.00 in0.0 mm
04:57 PM 55.2°F12.9°C 36.0°F2.2°C 48% 11.0 mph N17.7 kmh N 26.2 mph42.2 kmh 29.87 in1011.5 mb - 0.00 in0.0 mm 0.00 in0.0 mm
05:02 PM 54.7°F12.6°C 36.0°F2.2°C 49% 11.0 mph NW17.7 kmh NW 23.3 mph37.5 kmh 29.87 in1011.5 mb - 0.00 in0.0 mm 0.00 in0.0 mm
05:07 PM 54.5°F12.5°C 36.3°F2.4°C 50% 5.8 mph W9.3 kmh W 11.0 mph17.7 kmh 29.87 in1011.5 mb - 0.00 in0.0 mm 0.00 in0.0 mm
05:12 PM 54.5°F12.5°C 36.3°F2.4°C 50% 5.8 mph WSW9.3 kmh WSW 13.0 mph20.9 kmh 29.87 in1011.5 mb - 0.00 in0.0 mm 0.00 in0.0 mm
05:17 PM 54.9°F12.7°C 37.0°F2.8°C 51% 7.2 mph W11.6 kmh W 15.4 mph24.8 kmh 29.87 in1011.5 mb - 0.00 in0.0 mm 0.00 in0.0 mm
05:22 PM 55.0°F12.8°C 37.2°F2.9°C 51% 8.3 mph W13.4 kmh W 20.6 mph33.2 kmh 29.87 in1011.5 mb - 0.00 in0.0 mm 0.00 in0.0 mm
05:27 PM 54.9°F12.7°C 36.7°F2.6°C 50% 11.4 mph WNW18.3 kmh WNW 24.6 mph39.6 kmh 29.87 in1011.5 mb - 0.00 in0.0 mm 0.00 in0.0 mm
05:32 PM 54.9°F12.7°C 37.0°F2.8°C 51% 8.9 mph W14.3 kmh W 25.5 mph41.0 kmh 29.87 in1011.5 mb - 0.00 in0.0 mm 0.00 in0.0 mm
05:37 PM 54.7°F12.6°C 36.5°F2.5°C 50% 9.2 mph NW14.8 kmh NW 19.2 mph30.9 kmh 29.87 in1011.5 mb - 0.00 in0.0 mm 0.00 in0.0 mm
05:42 PM 54.5°F12.5°C 36.3°F2.4°C 50% 6.9 mph W11.1 kmh W 23.9 mph38.5 kmh 29.87 in1011.5 mb - 0.00 in0.0 mm 0.00 in0.0 mm
05:47 PM 54.9°F12.7°C 35.6°F2.0°C 48% 7.6 mph WSW12.2 kmh WSW 16.6 mph26.7 kmh 29.87 in1011.5 mb - 0.00 in0.0 mm 0.00 in0.0 mm
05:52 PM 55.0°F12.8°C 35.2°F1.8°C 47% 8.5 mph WSW13.7 kmh WSW 24.6 mph39.6 kmh 29.87 in1011.5 mb - 0.00 in0.0 mm 0.00 in0.0 mm
05:57 PM 54.3°F12.4°C 34.5°F1.4°C 47% 10.5 mph NW16.9 kmh NW 24.8 mph39.9 kmh 29.87 in1011.5 mb - 0.00 in0.0 mm 0.00 in0.0 mm
06:02 PM 53.8°F12.1°C 34.5°F1.4°C 48% 11.6 mph WNW18.7 kmh WNW 24.4 mph39.3 kmh 29.90 in1012.5 mb - 0.00 in0.0 mm 0.00 in0.0 mm
06:07 PM 53.4°F11.9°C 34.3°F1.3°C 48% 9.4 mph NW15.1 kmh NW 16.8 mph27.0 kmh 29.90 in1012.5 mb - 0.00 in0.0 mm 0.00 in0.0 mm
06:12 PM 53.2°F11.8°C 34.5°F1.4°C 49% 8.9 mph NW14.3 kmh NW 20.6 mph33.2 kmh 29.90 in1012.5 mb - 0.00 in0.0 mm 0.00 in0.0 mm
06:17 PM 53.1°F11.7°C 34.5°F1.4°C 49% 9.4 mph NW15.1 kmh NW 21.5 mph34.6 kmh 29.93 in1013.5 mb - 0.00 in0.0 mm 0.00 in0.0 mm
06:22 PM 53.1°F11.7°C 34.0°F1.1°C 48% 10.3 mph W16.6 kmh W 28.2 mph45.4 kmh 29.93 in1013.5 mb - 0.00 in0.0 mm 0.00 in0.0 mm
06:27 PM 53.1°F11.7°C 34.0°F1.1°C 48% 8.5 mph W13.7 kmh W 21.0 mph33.8 kmh 29.93 in1013.5 mb - 0.00 in0.0 mm 0.00 in0.0 mm
06:32 PM 53.1°F11.7°C 34.0°F1.1°C 48% 8.1 mph NW13.0 kmh NW 19.0 mph30.6 kmh 29.93 in1013.5 mb - 0.00 in0.0 mm 0.00 in0.0 mm
06:37 PM 52.9°F11.6°C 34.3°F1.3°C 49% 10.1 mph NW16.3 kmh NW 19.5 mph31.4 kmh 29.93 in1013.5 mb - 0.00 in0.0 mm 0.00 in0.0 mm
06:42 PM 52.7°F11.5°C 34.2°F1.2°C 49% 10.7 mph WNW17.2 kmh WNW 24.6 mph39.6 kmh 29.93 in1013.5 mb - 0.00 in0.0 mm 0.00 in0.0 mm
06:47 PM 52.7°F11.5°C 34.7°F1.5°C 50% 8.7 mph NW14.0 kmh NW 18.8 mph30.3 kmh 29.90 in1012.5 mb - 0.00 in0.0 mm 0.00 in0.0 mm
06:52 PM 52.5°F11.4°C 34.5°F1.4°C 50% 10.7 mph NW17.2 kmh NW 20.1 mph32.3 kmh 29.90 in1012.5 mb - 0.00 in0.0 mm 0.00 in0.0 mm
06:57 PM 52.2°F11.2°C 34.7°F1.5°C 51% 9.6 mph SE15.4 kmh SE 24.4 mph39.3 kmh 29.90 in1012.5 mb - 0.00 in0.0 mm 0.00 in0.0 mm
07:02 PM 52.0°F11.1°C 34.5°F1.4°C 51% 12.8 mph W20.6 kmh W 27.1 mph43.6 kmh 29.93 in1013.5 mb - 0.00 in0.0 mm 0.00 in0.0 mm
07:07 PM 51.8°F11.0°C 34.7°F1.5°C 52% 8.5 mph NW13.7 kmh NW 18.8 mph30.3 kmh 29.93 in1013.5 mb - 0.00 in0.0 mm 0.00 in0.0 mm
07:12 PM 51.4°F10.8°C 34.5°F1.4°C 52% 8.9 mph WSW14.3 kmh WSW 16.1 mph25.9 kmh 29.93 in1013.5 mb - 0.00 in0.0 mm 0.00 in0.0 mm
07:17 PM 51.3°F10.7°C 34.7°F1.5°C 53% 6.0 mph NW9.7 kmh NW 14.3 mph23.0 kmh 29.93 in1013.5 mb - 0.00 in0.0 mm 0.00 in0.0 mm
07:22 PM 51.1°F10.6°C 34.5°F1.4°C 53% 6.9 mph WNW11.1 kmh WNW 15.7 mph25.3 kmh 29.93 in1013.5 mb - 0.00 in0.0 mm 0.00 in0.0 mm
07:27 PM 51.1°F10.6°C 34.5°F1.4°C 53% 6.5 mph WNW10.5 kmh WNW 14.3 mph23.0 kmh 29.93 in1013.5 mb - 0.00 in0.0 mm 0.00 in0.0 mm
07:32 PM 50.9°F10.5°C 34.3°F1.3°C 53% 7.6 mph WNW12.2 kmh WNW 18.8 mph30.3 kmh 29.93 in1013.5 mb - 0.00 in0.0 mm 0.00 in0.0 mm
07:37 PM 50.9°F10.5°C 34.3°F1.3°C 53% 6.5 mph W10.5 kmh W 13.4 mph21.6 kmh 29.93 in1013.5 mb - 0.00 in0.0 mm 0.00 in0.0 mm
07:42 PM 50.7°F10.4°C 34.7°F1.5°C 54% 8.1 mph NW13.0 kmh NW 16.3 mph26.2 kmh 29.93 in1013.5 mb - 0.00 in0.0 mm 0.00 in0.0 mm
07:47 PM 50.5°F10.3°C 34.5°F1.4°C 54% 6.0 mph NW9.7 kmh NW 14.3 mph23.0 kmh 29.96 in1014.6 mb - 0.00 in0.0 mm 0.00 in0.0 mm
07:52 PM 50.4°F10.2°C 34.3°F1.3°C 54% 6.7 mph NW10.8 kmh NW 13.4 mph21.6 kmh 29.96 in1014.6 mb - 0.00 in0.0 mm 0.00 in0.0 mm
07:57 PM 50.2°F10.1°C 34.7°F1.5°C 55% 4.9 mph WSW7.9 kmh WSW 13.2 mph21.2 kmh 29.96 in1014.6 mb - 0.00 in0.0 mm 0.00 in0.0 mm
08:02 PM 50.0°F10.0°C 34.5°F1.4°C 55% 5.1 mph NW8.2 kmh NW 5.1 mph8.2 kmh 29.96 in1014.6 mb - 0.00 in0.0 mm 0.00 in0.0 mm
08:07 PM 50.0°F10.0°C 34.5°F1.4°C 55% 4.0 mph WSW6.4 kmh WSW 8.7 mph14.0 kmh 29.96 in1014.6 mb - 0.00 in0.0 mm 0.00 in0.0 mm
08:12 PM 50.0°F10.0°C 34.9°F1.6°C 56% 5.1 mph NW8.2 kmh NW 17.0 mph27.4 kmh 29.96 in1014.6 mb - 0.00 in0.0 mm 0.00 in0.0 mm
08:17 PM 50.0°F10.0°C 34.9°F1.6°C 56% 5.1 mph SW8.2 kmh SW 13.2 mph21.2 kmh 29.96 in1014.6 mb - 0.00 in0.0 mm 0.00 in0.0 mm
08:22 PM 50.0°F10.0°C 34.9°F1.6°C 56% 3.6 mph WSW5.8 kmh WSW 9.8 mph15.8 kmh 29.96 in1014.6 mb - 0.00 in0.0 mm 0.00 in0.0 mm
08:27 PM 50.0°F10.0°C 34.9°F1.6°C 56% 5.6 mph W9.0 kmh W 11.0 mph17.7 kmh 29.96 in1014.6 mb - 0.00 in0.0 mm 0.00 in0.0 mm
08:32 PM 50.0°F10.0°C 34.9°F1.6°C 56% 4.9 mph NW7.9 kmh NW 12.3 mph19.8 kmh 29.96 in1014.6 mb - 0.00 in0.0 mm 0.00 in0.0 mm
08:37 PM 50.0°F10.0°C 34.9°F1.6°C 56% 1.1 mph SW1.8 kmh SW 6.5 mph10.5 kmh 29.96 in1014.6 mb - 0.00 in0.0 mm 0.00 in0.0 mm
08:42 PM 50.0°F10.0°C 34.9°F1.6°C 56% 4.5 mph W7.2 kmh W 10.1 mph16.3 kmh 29.96 in1014.6 mb - 0.00 in0.0 mm 0.00 in0.0 mm
08:47 PM 50.0°F10.0°C 35.4°F1.9°C 57% 4.9 mph NW7.9 kmh NW 9.8 mph15.8 kmh 29.96 in1014.6 mb - 0.00 in0.0 mm 0.00 in0.0 mm
08:52 PM 50.0°F10.0°C 35.4°F1.9°C 57% 3.8 mph W6.1 kmh W 9.6 mph15.4 kmh 29.96 in1014.6 mb - 0.00 in0.0 mm 0.00 in0.0 mm
08:57 PM 50.0°F10.0°C 35.4°F1.9°C 57% 4.3 mph W6.9 kmh W 9.2 mph14.8 kmh 29.96 in1014.6 mb - 0.00 in0.0 mm 0.00 in0.0 mm
09:02 PM 50.2°F10.1°C 35.6°F2.0°C 57% 3.6 mph W5.8 kmh W 7.6 mph12.2 kmh 29.99 in1015.6 mb - 0.00 in0.0 mm 0.00 in0.0 mm
09:07 PM 50.2°F10.1°C 35.6°F2.0°C 57% 4.0 mph NW6.4 kmh NW 12.3 mph19.8 kmh 29.99 in1015.6 mb - 0.00 in0.0 mm 0.00 in0.0 mm
09:12 PM 50.0°F10.0°C 35.4°F1.9°C 57% 3.4 mph NW5.5 kmh NW 8.7 mph14.0 kmh 29.99 in1015.6 mb - 0.00 in0.0 mm 0.00 in0.0 mm
09:17 PM 50.0°F10.0°C 35.4°F1.9°C 57% 4.0 mph NW6.4 kmh NW 7.8 mph12.6 kmh 29.96 in1014.6 mb - 0.00 in0.0 mm 0.00 in0.0 mm
09:22 PM 50.0°F10.0°C 35.4°F1.9°C 57% 4.3 mph NW6.9 kmh NW 8.7 mph14.0 kmh 29.96 in1014.6 mb - 0.00 in0.0 mm 0.00 in0.0 mm
09:27 PM 49.8°F9.9°C 35.2°F1.8°C 57% 4.3 mph WNW6.9 kmh WNW 8.3 mph13.4 kmh 29.96 in1014.6 mb - 0.00 in0.0 mm 0.00 in0.0 mm
09:32 PM 50.0°F10.0°C 35.4°F1.9°C 57% 5.1 mph W8.2 kmh W 9.6 mph15.4 kmh 29.99 in1015.6 mb - 0.00 in0.0 mm 0.00 in0.0 mm
09:37 PM 50.0°F10.0°C 35.4°F1.9°C 57% 7.4 mph WSW11.9 kmh WSW 12.3 mph19.8 kmh 29.99 in1015.6 mb - 0.00 in0.0 mm 0.00 in0.0 mm
09:42 PM 49.8°F9.9°C 35.2°F1.8°C 57% 7.6 mph WNW12.2 kmh WNW 12.5 mph20.1 kmh 29.99 in1015.6 mb - 0.00 in0.0 mm 0.00 in0.0 mm
09:47 PM 49.8°F9.9°C 35.2°F1.8°C 57% 7.4 mph WNW11.9 kmh WNW 7.4 mph11.9 kmh 29.99 in1015.6 mb - 0.00 in0.0 mm 0.00 in0.0 mm
09:52 PM 50.2°F10.1°C 35.1°F1.7°C 56% 5.6 mph SW9.0 kmh SW 11.0 mph17.7 kmh 29.99 in1015.6 mb - 0.00 in0.0 mm 0.00 in0.0 mm
09:57 PM 50.5°F10.3°C 35.1°F1.7°C 55% 8.5 mph WSW13.7 kmh WSW 16.8 mph27.0 kmh 29.99 in1015.6 mb - 0.00 in0.0 mm 0.00 in0.0 mm
10:02 PM 50.5°F10.3°C 35.1°F1.7°C 55% 9.6 mph WSW15.4 kmh WSW 23.5 mph37.8 kmh 29.99 in1015.6 mb - 0.00 in0.0 mm 0.00 in0.0 mm
10:07 PM 50.7°F10.4°C 34.7°F1.5°C 54% 9.6 mph SW15.4 kmh SW 17.4 mph28.0 kmh 29.99 in1015.6 mb - 0.00 in0.0 mm 0.00 in0.0 mm
10:12 PM 50.7°F10.4°C 34.7°F1.5°C 54% 8.3 mph W13.4 kmh W 16.6 mph26.7 kmh 29.99 in1015.6 mb - 0.00 in0.0 mm 0.00 in0.0 mm
10:17 PM 50.5°F10.3°C 34.5°F1.4°C 54% 6.9 mph SW11.1 kmh SW 16.1 mph25.9 kmh 29.99 in1015.6 mb - 0.00 in0.0 mm 0.00 in0.0 mm
10:22 PM 50.5°F10.3°C 34.5°F1.4°C 54% 7.4 mph WNW11.9 kmh WNW 12.5 mph20.1 kmh 29.99 in1015.6 mb - 0.00 in0.0 mm 0.00 in0.0 mm
10:27 PM 50.5°F10.3°C 34.5°F1.4°C 54% 10.1 mph W16.3 kmh W 20.6 mph33.2 kmh 29.99 in1015.6 mb - 0.00 in0.0 mm 0.00 in0.0 mm
10:32 PM 50.5°F10.3°C 34.5°F1.4°C 54% 8.1 mph WNW13.0 kmh WNW 14.5 mph23.3 kmh 29.99 in1015.6 mb - 0.00 in0.0 mm 0.00 in0.0 mm
10:37 PM 50.5°F10.3°C 34.2°F1.2°C 53% 8.5 mph WSW13.7 kmh WSW 16.3 mph26.2 kmh 29.99 in1015.6 mb - 0.00 in0.0 mm 0.00 in0.0 mm
10:42 PM 50.4°F10.2°C 34.3°F1.3°C 54% 6.3 mph WNW10.1 kmh WNW 6.3 mph10.1 kmh 29.99 in1015.6 mb - 0.00 in0.0 mm 0.00 in0.0 mm
10:47 PM 50.2°F10.1°C 33.8°F1.0°C 53% 5.1 mph WSW8.2 kmh WSW 12.3 mph19.8 kmh 30.01 in1016.3 mb - 0.00 in0.0 mm 0.00 in0.0 mm
10:52 PM 50.2°F10.1°C 33.8°F1.0°C 53% 7.2 mph SSW11.6 kmh SSW 13.6 mph21.9 kmh 30.01 in1016.3 mb - 0.00 in0.0 mm 0.00 in0.0 mm
10:57 PM 50.0°F10.0°C 33.6°F0.9°C 53% 5.1 mph WSW8.2 kmh WSW 8.7 mph14.0 kmh 30.01 in1016.3 mb - 0.00 in0.0 mm 0.00 in0.0 mm
11:02 PM 50.0°F10.0°C 34.0°F1.1°C 54% 4.7 mph W7.6 kmh W 10.3 mph16.6 kmh 29.99 in1015.6 mb - 0.00 in0.0 mm 0.00 in0.0 mm
11:07 PM 49.8°F9.9°C 33.8°F1.0°C 54% 4.9 mph WSW7.9 kmh WSW 8.7 mph14.0 kmh 29.99 in1015.6 mb - 0.00 in0.0 mm 0.00 in0.0 mm
11:12 PM 49.8°F9.9°C 33.8°F1.0°C 54% 4.3 mph W6.9 kmh W 9.2 mph14.8 kmh 29.99 in1015.6 mb - 0.00 in0.0 mm 0.00 in0.0 mm
11:17 PM 49.8°F9.9°C 33.8°F1.0°C 54% 5.8 mph W9.3 kmh W 11.0 mph17.7 kmh 29.96 in1014.6 mb - 0.00 in0.0 mm 0.00 in0.0 mm
11:22 PM 49.8°F9.9°C 34.3°F1.3°C 55% 4.7 mph W7.6 kmh W 9.8 mph15.8 kmh 29.96 in1014.6 mb - 0.00 in0.0 mm 0.00 in0.0 mm
11:27 PM 49.8°F9.9°C 34.3°F1.3°C 55% 4.7 mph W7.6 kmh W 10.5 mph16.9 kmh 29.96 in1014.6 mb - 0.00 in0.0 mm 0.00 in0.0 mm
11:32 PM 49.6°F9.8°C 34.7°F1.5°C 56% 3.8 mph WSW6.1 kmh WSW 7.4 mph11.9 kmh 29.99 in1015.6 mb - 0.00 in0.0 mm 0.00 in0.0 mm
11:37 PM 49.6°F9.8°C 34.7°F1.5°C 56% 5.4 mph WNW8.7 kmh WNW 9.8 mph15.8 kmh 29.99 in1015.6 mb - 0.00 in0.0 mm 0.00 in0.0 mm
11:42 PM 49.5°F9.7°C 34.5°F1.4°C 56% 5.4 mph SW8.7 kmh SW 10.1 mph16.3 kmh 29.99 in1015.6 mb - 0.00 in0.0 mm 0.00 in0.0 mm
11:47 PM 49.5°F9.7°C 34.9°F1.6°C 57% 4.3 mph WNW6.9 kmh WNW 8.5 mph13.7 kmh 29.99 in1015.6 mb - 0.00 in0.0 mm 0.00 in0.0 mm
11:52 PM 49.3°F9.6°C 34.7°F1.5°C 57% 5.4 mph W8.7 kmh W 9.8 mph15.8 kmh 29.99 in1015.6 mb - 0.00 in0.0 mm 0.00 in0.0 mm
11:57 PM 49.3°F9.6°C 34.7°F1.5°C 57% 4.5 mph WNW7.2 kmh WNW 8.5 mph13.7 kmh 29.99 in1015.6 mb - 0.00 in0.0 mm 0.00 in0.0 mm